createdAt,value
2022-10-18T00:01:43.414Z,30.38
2022-10-18T00:04:13.508Z,30.38
2022-10-18T00:06:43.941Z,30.39
2022-10-18T00:09:14.493Z,30.41
2022-10-18T00:11:44.959Z,30.40
2022-10-18T00:14:17.413Z,30.42
2022-10-18T00:16:48.008Z,30.41
2022-10-18T00:19:18.613Z,30.40
2022-10-18T00:21:49.023Z,30.40
2022-10-18T00:24:18.775Z,30.39
2022-10-18T00:26:49.049Z,30.39
2022-10-18T00:29:21.027Z,30.39
2022-10-18T00:31:51.429Z,30.37
2022-10-18T00:34:21.786Z,30.35
2022-10-18T00:36:51.904Z,30.33
2022-10-18T00:39:24.337Z,30.30
2022-10-18T00:41:54.572Z,30.27
2022-10-18T00:45:15.277Z,30.22
2022-10-18T00:47:48.037Z,30.21
2022-10-18T00:50:18.785Z,30.21
2022-10-18T00:52:55.040Z,30.19
2022-10-18T00:55:25.410Z,30.20
2022-10-18T00:57:56.983Z,30.20
2022-10-18T01:00:29.318Z,30.21
2022-10-18T01:03:00.784Z,30.21
2022-10-18T01:05:31.221Z,30.20
2022-10-18T01:08:44.366Z,30.20
2022-10-18T01:11:47.996Z,30.17
2022-10-18T01:14:36.378Z,30.16
2022-10-18T01:17:21.586Z,30.15
2022-10-18T01:20:36.569Z,30.11
2022-10-18T01:23:13.534Z,30.10
2022-10-18T01:25:58.705Z,30.09
2022-10-18T01:28:51.678Z,30.07
2022-10-18T01:31:29.010Z,30.04
2022-10-18T01:34:04.524Z,30.04
2022-10-18T01:36:37.909Z,30.03
2022-10-18T01:39:14.835Z,30.02
2022-10-18T01:41:48.055Z,30.01
2022-10-18T01:44:25.937Z,30.00
2022-10-18T01:47:00.311Z,29.99
2022-10-18T01:49:30.602Z,29.95
2022-10-18T01:52:00.886Z,29.93
2022-10-18T01:54:37.044Z,29.91
2022-10-18T01:57:15.189Z,29.90
2022-10-18T01:59:58.836Z,29.89
2022-10-18T02:02:49.509Z,29.86
2022-10-18T02:05:32.755Z,29.86
2022-10-18T02:08:22.878Z,29.86
2022-10-18T02:10:59.600Z,29.86
2022-10-18T02:13:38.596Z,29.85
2022-10-18T02:16:15.440Z,29.85
2022-10-18T02:18:53.072Z,29.85
2022-10-18T02:21:27.365Z,29.85
2022-10-18T02:24:01.595Z,29.86
2022-10-18T02:26:32.629Z,29.84
2022-10-18T02:29:03.378Z,29.84
2022-10-18T02:31:41.842Z,29.84
2022-10-18T02:34:23.407Z,29.83
2022-10-18T02:36:57.802Z,29.80
2022-10-18T02:39:33.950Z,29.77
2022-10-18T02:42:07.234Z,29.75
2022-10-18T02:44:38.117Z,29.74
2022-10-18T02:47:12.580Z,29.71
2022-10-18T02:49:44.351Z,29.70
2022-10-18T02:52:14.594Z,29.69
2022-10-18T02:54:44.906Z,29.70
2022-10-18T02:57:14.551Z,29.67
2022-10-18T02:59:44.250Z,29.66
2022-10-18T03:02:14.385Z,29.66
2022-10-18T03:04:46.539Z,29.66
2022-10-18T03:07:16.332Z,29.66
2022-10-18T03:09:46.599Z,29.65
2022-10-18T03:12:16.951Z,29.66
2022-10-18T03:14:47.293Z,29.66
2022-10-18T03:17:17.682Z,29.68
2022-10-18T03:19:49.912Z,29.66
2022-10-18T03:22:19.706Z,29.66
2022-10-18T03:24:50.054Z,29.65
2022-10-18T03:27:20.324Z,29.64
2022-10-18T03:29:50.491Z,29.64
2022-10-18T03:32:20.758Z,29.62
2022-10-18T03:34:53.025Z,29.61
2022-10-18T03:37:24.008Z,29.59
2022-10-18T03:39:54.359Z,29.59
2022-10-18T03:42:24.348Z,29.58
2022-10-18T03:44:54.822Z,29.58
2022-10-18T03:47:24.978Z,29.58
2022-10-18T03:49:57.544Z,29.59
2022-10-18T03:52:27.440Z,29.58
2022-10-18T03:54:57.261Z,29.56
2022-10-18T03:57:27.798Z,29.55
2022-10-18T03:59:57.511Z,29.54
2022-10-18T04:02:28.195Z,29.53
2022-10-18T04:05:00.559Z,29.52
2022-10-18T04:07:30.641Z,29.50
2022-10-18T04:10:00.666Z,29.50
2022-10-18T04:12:31.181Z,29.50
2022-10-18T04:15:01.603Z,29.50
2022-10-18T04:17:31.878Z,29.52
2022-10-18T04:20:04.130Z,29.52
2022-10-18T04:22:34.431Z,29.52
2022-10-18T04:25:04.469Z,29.51
2022-10-18T04:27:34.910Z,29.52
2022-10-18T04:30:04.737Z,29.54
2022-10-18T04:32:35.966Z,29.59
2022-10-18T04:35:09.979Z,29.66
2022-10-18T04:37:40.278Z,29.73
2022-10-18T04:40:12.207Z,29.80
2022-10-18T04:42:42.590Z,29.87
2022-10-18T04:45:13.809Z,29.92
2022-10-18T04:47:44.070Z,30.00
2022-10-18T04:50:15.185Z,30.09
2022-10-18T04:52:45.440Z,30.14
2022-10-18T04:55:15.731Z,30.22
2022-10-18T04:57:46.126Z,30.31
2022-10-18T05:00:17.926Z,30.41
2022-10-18T05:02:48.251Z,30.49
2022-10-18T05:05:20.764Z,30.62
2022-10-18T05:07:50.873Z,30.73
2022-10-18T05:10:21.047Z,30.84
2022-10-18T05:12:51.451Z,30.92
2022-10-18T05:15:21.561Z,30.98
2022-10-18T05:17:51.763Z,31.05
2022-10-18T05:20:23.735Z,31.13
2022-10-18T05:22:54.077Z,31.22
2022-10-18T05:25:24.356Z,31.32
2022-10-18T05:27:54.928Z,31.41
2022-10-18T05:30:27.012Z,31.48
2022-10-18T05:32:57.098Z,31.56
2022-10-18T05:35:29.117Z,31.66
2022-10-18T05:37:58.988Z,31.76
2022-10-18T05:40:29.132Z,31.87
2022-10-18T05:42:59.536Z,31.97
2022-10-18T05:45:29.873Z,32.07
2022-10-18T05:48:00.728Z,32.16
2022-10-18T05:50:35.483Z,32.25
2022-10-18T05:53:12.343Z,32.34
2022-10-18T05:55:42.561Z,32.44
2022-10-18T05:58:12.496Z,32.55
2022-10-18T06:00:42.476Z,32.65
2022-10-18T06:03:13.112Z,32.77
2022-10-18T06:05:44.893Z,32.90
2022-10-18T06:08:14.505Z,32.99
2022-10-18T06:10:44.414Z,33.09
2022-10-18T06:13:14.568Z,33.18
2022-10-18T06:15:44.933Z,33.28
2022-10-18T06:18:14.643Z,33.35
2022-10-18T06:20:46.603Z,33.43
2022-10-18T06:23:16.971Z,33.53
2022-10-18T06:25:46.875Z,33.60
2022-10-18T06:28:16.945Z,33.67
2022-10-18T06:30:47.624Z,33.76
2022-10-18T06:33:17.162Z,33.86
2022-10-18T06:35:58.762Z,33.96
2022-10-18T06:38:29.672Z,34.03
2022-10-18T06:41:01.935Z,34.13
2022-10-18T06:43:32.388Z,34.20
2022-10-18T06:46:05.606Z,34.28
2022-10-18T06:48:36.244Z,34.35
2022-10-18T06:51:10.497Z,34.38
2022-10-18T06:53:44.322Z,34.43
2022-10-18T06:56:23.725Z,34.47
2022-10-18T06:58:53.950Z,34.51
2022-10-18T07:01:24.946Z,34.55
2022-10-18T07:03:56.620Z,34.60
2022-10-18T07:06:28.909Z,34.64
2022-10-18T07:08:59.335Z,34.65
2022-10-18T07:11:30.185Z,34.63
2022-10-18T07:14:05.327Z,34.59
2022-10-18T07:16:36.969Z,34.57
2022-10-18T07:19:06.948Z,34.51
2022-10-18T07:21:39.082Z,34.50
2022-10-18T07:24:09.206Z,34.53
2022-10-18T07:26:39.914Z,34.59
2022-10-18T07:29:14.094Z,34.64
2022-10-18T07:31:45.657Z,34.69
2022-10-18T07:34:16.804Z,34.71
2022-10-18T07:36:52.867Z,34.73
2022-10-18T07:39:23.297Z,34.71
2022-10-18T07:41:53.148Z,34.69
2022-10-18T07:44:23.634Z,34.69
2022-10-18T07:46:53.591Z,34.69
2022-10-18T07:49:24.310Z,34.69
2022-10-18T07:51:56.548Z,34.70
2022-10-18T07:54:26.455Z,34.75
2022-10-18T07:56:58.882Z,34.80
2022-10-18T07:59:29.067Z,34.85
2022-10-18T08:01:59.053Z,34.90
2022-10-18T08:04:29.026Z,34.91
2022-10-18T08:07:00.886Z,34.89
2022-10-18T08:09:32.138Z,34.87
2022-10-18T08:12:03.066Z,34.84
2022-10-18T08:14:33.459Z,34.80
2022-10-18T08:17:03.739Z,34.78
2022-10-18T08:19:33.452Z,34.75
2022-10-18T08:22:05.775Z,34.71
2022-10-18T08:24:36.011Z,34.68
2022-10-18T08:27:06.373Z,34.70
2022-10-18T08:29:36.648Z,34.74
2022-10-18T08:32:08.313Z,34.77
2022-10-18T08:37:16.256Z,34.86
2022-10-18T08:39:46.482Z,34.89
2022-10-18T08:42:39.392Z,34.93
2022-10-18T08:45:37.471Z,34.92
2022-10-18T08:48:19.391Z,34.95
2022-10-18T08:50:52.815Z,34.98
2022-10-18T08:53:37.763Z,34.99
2022-10-18T08:56:15.572Z,35.00
2022-10-18T08:58:46.841Z,35.01
2022-10-18T09:01:41.971Z,35.06
2022-10-18T09:04:43.279Z,35.10
2022-10-18T09:07:30.226Z,35.09
2022-10-18T09:10:16.492Z,35.08
2022-10-18T09:13:33.034Z,35.03
2022-10-18T09:16:07.284Z,35.00
2022-10-18T09:18:59.013Z,35.02
2022-10-18T09:21:47.395Z,35.04
2022-10-18T09:24:27.491Z,35.07
2022-10-18T09:27:11.752Z,35.10
2022-10-18T09:30:01.087Z,35.12
2022-10-18T09:32:50.225Z,35.13
2022-10-18T09:35:26.725Z,35.12
2022-10-18T09:38:05.900Z,35.14
2022-10-18T09:40:49.086Z,35.15
2022-10-18T09:43:27.915Z,35.13
2022-10-18T09:45:59.566Z,35.13
2022-10-18T09:48:36.895Z,35.12
2022-10-18T09:51:13.576Z,35.09
2022-10-18T09:53:54.012Z,35.05
2022-10-18T09:56:33.867Z,35.03
2022-10-18T09:59:08.332Z,35.01
2022-10-18T10:01:39.054Z,35.00
2022-10-18T10:04:10.471Z,34.97
2022-10-18T10:06:42.375Z,34.96
2022-10-18T10:09:19.898Z,34.95
2022-10-18T10:11:52.340Z,34.93
2022-10-18T10:14:27.157Z,34.92
2022-10-18T10:17:00.095Z,34.90
2022-10-18T10:19:36.713Z,34.88
2022-10-18T10:22:11.746Z,34.85
2022-10-18T10:24:51.873Z,34.83
2022-10-18T10:27:32.420Z,34.82
2022-10-18T10:30:07.475Z,34.78
2022-10-18T10:32:50.808Z,34.73
2022-10-18T10:38:29.259Z,34.67
2022-10-18T10:41:00.479Z,34.66
2022-10-18T10:43:38.677Z,34.65
2022-10-18T10:46:15.487Z,34.63
2022-10-18T10:49:00.611Z,34.59
2022-10-18T10:51:50.586Z,34.54
2022-10-18T10:54:35.719Z,34.49
2022-10-18T10:57:19.221Z,34.46
2022-10-18T10:59:52.693Z,34.42
2022-10-18T11:02:32.867Z,34.40
2022-10-18T11:05:26.474Z,34.35
2022-10-18T11:08:02.827Z,34.27
2022-10-18T11:10:41.071Z,34.22
2022-10-18T11:13:27.116Z,34.15
2022-10-18T11:16:07.022Z,34.09
2022-10-18T11:18:41.414Z,34.06
2022-10-18T11:21:20.066Z,34.05
2022-10-18T11:23:50.768Z,34.03
2022-10-18T11:26:43.705Z,34.02
2022-10-18T11:29:41.107Z,33.98
2022-10-18T11:32:29.369Z,33.96
2022-10-18T11:35:23.642Z,33.95
2022-10-18T11:38:13.943Z,33.93
2022-10-18T11:41:16.874Z,33.92
2022-10-18T11:44:02.322Z,33.88
2022-10-18T11:46:57.220Z,33.84
2022-10-18T11:50:05.638Z,33.79
2022-10-18T11:52:50.305Z,33.76
2022-10-18T11:55:40.667Z,33.75
2022-10-18T11:58:39.050Z,33.73
2022-10-18T12:01:26.150Z,33.71
2022-10-18T12:04:10.588Z,33.68
2022-10-18T12:06:44.185Z,33.66
2022-10-18T12:09:26.968Z,33.64
2022-10-18T12:12:03.716Z,33.63
2022-10-18T12:14:42.079Z,33.62
2022-10-18T12:17:51.358Z,33.61
2022-10-18T12:20:20.641Z,33.59
2022-10-18T12:23:01.678Z,33.57
2022-10-18T12:25:40.348Z,33.56
2022-10-18T12:28:25.083Z,33.54
2022-10-18T12:31:04.888Z,33.52
2022-10-18T12:33:44.693Z,33.50
2022-10-18T12:36:37.438Z,33.48
2022-10-18T12:39:28.985Z,33.46
2022-10-18T12:42:25.229Z,33.43
2022-10-18T12:45:07.741Z,33.40
2022-10-18T12:47:38.424Z,33.36
2022-10-18T12:50:29.431Z,33.35
2022-10-18T12:53:18.099Z,33.33
2022-10-18T12:55:52.136Z,33.29
2022-10-18T12:58:43.024Z,33.26
2022-10-18T13:01:13.463Z,33.25
2022-10-18T13:04:04.394Z,33.23
2022-10-18T13:07:23.944Z,33.19
2022-10-18T13:10:43.017Z,33.16
2022-10-18T13:13:59.267Z,33.16
2022-10-18T13:16:44.826Z,33.15
2022-10-18T13:19:27.210Z,33.16
2022-10-18T13:22:25.442Z,33.17
2022-10-18T13:25:07.056Z,33.18
2022-10-18T13:27:50.261Z,33.18
2022-10-18T13:30:56.845Z,33.13
2022-10-18T13:33:35.302Z,33.11
2022-10-18T13:36:08.948Z,33.09
2022-10-18T13:39:02.567Z,33.09
2022-10-18T13:41:57.478Z,33.08
2022-10-18T13:44:32.284Z,33.06
2022-10-18T13:47:38.601Z,33.05
2022-10-18T13:50:33.350Z,33.02
2022-10-18T13:53:48.223Z,32.96
2022-10-18T13:56:53.793Z,32.93
2022-10-18T13:59:47.930Z,32.92
2022-10-18T14:02:59.754Z,32.91
2022-10-18T14:05:53.315Z,32.91
2022-10-18T14:08:37.560Z,32.92
2022-10-18T14:11:21.538Z,32.91
2022-10-18T14:13:58.703Z,32.89
2022-10-18T14:16:39.437Z,32.88
2022-10-18T14:19:24.315Z,32.84
2022-10-18T14:22:06.970Z,32.80
2022-10-18T14:24:38.239Z,32.78
2022-10-18T14:27:28.201Z,32.79
2022-10-18T14:30:17.599Z,32.73
2022-10-18T14:32:50.320Z,32.72
2022-10-18T14:35:33.738Z,32.70
2022-10-18T14:38:06.336Z,32.70
2022-10-18T14:40:40.802Z,32.71
2022-10-18T14:43:16.288Z,32.70
2022-10-18T14:45:46.730Z,32.71
2022-10-18T14:48:20.122Z,32.69
2022-10-18T14:51:01.185Z,32.67
2022-10-18T14:53:39.999Z,32.65
2022-10-18T14:56:23.282Z,32.62
2022-10-18T14:58:54.938Z,32.60
2022-10-18T15:01:30.086Z,32.60
2022-10-18T15:04:04.512Z,32.60
2022-10-18T15:06:36.747Z,32.57
2022-10-18T15:09:08.113Z,32.57
2022-10-18T15:11:38.814Z,32.53
2022-10-18T15:14:18.321Z,32.51
2022-10-18T15:16:51.295Z,32.47
2022-10-18T15:19:34.813Z,32.45
2022-10-18T15:25:20.016Z,32.41
2022-10-18T15:27:53.373Z,32.39
2022-10-18T15:30:29.351Z,32.36
2022-10-18T15:33:04.099Z,32.35
2022-10-18T15:35:37.627Z,32.33
2022-10-18T15:38:28.753Z,32.31
2022-10-18T15:40:58.896Z,32.28
2022-10-18T15:43:39.646Z,32.29
2022-10-18T15:46:32.421Z,32.27
2022-10-18T15:49:53.295Z,32.24
2022-10-18T15:52:38.785Z,32.23
2022-10-18T15:55:51.085Z,32.22
2022-10-18T15:58:27.580Z,32.22
2022-10-18T16:01:02.375Z,32.23
2022-10-18T16:03:36.286Z,32.23
2022-10-18T16:06:11.359Z,32.25
2022-10-18T16:08:45.904Z,32.25
2022-10-18T16:11:20.860Z,32.27
2022-10-18T16:13:54.019Z,32.26
2022-10-18T16:16:30.441Z,32.26
2022-10-18T16:19:01.283Z,32.26
2022-10-18T16:21:34.086Z,32.25
2022-10-18T16:24:04.851Z,32.25
2022-10-18T16:26:37.475Z,32.24
2022-10-18T16:29:08.950Z,32.23
2022-10-18T16:31:39.280Z,32.22
2022-10-18T16:34:11.532Z,32.20
2022-10-18T16:36:41.952Z,32.18
2022-10-18T16:39:20.001Z,32.18
2022-10-18T16:41:56.369Z,32.18
2022-10-18T16:44:26.802Z,32.17
2022-10-18T16:46:57.281Z,32.17
2022-10-18T16:49:29.166Z,32.17
2022-10-18T16:51:59.831Z,32.16
2022-10-18T16:54:29.836Z,32.17
2022-10-18T16:57:02.642Z,32.18
2022-10-18T16:59:34.070Z,32.16
2022-10-18T17:02:09.248Z,32.17
2022-10-18T17:04:39.154Z,32.15
2022-10-18T17:07:10.630Z,32.14
2022-10-18T17:09:40.540Z,32.11
2022-10-18T17:12:12.141Z,32.11
2022-10-18T17:14:53.679Z,32.09
2022-10-18T17:17:23.970Z,32.09
2022-10-18T17:19:53.959Z,32.08
2022-10-18T17:22:24.660Z,32.09
2022-10-18T17:24:55.085Z,32.08
2022-10-18T17:27:28.144Z,32.08
2022-10-18T17:29:58.105Z,32.08
2022-10-18T17:32:28.552Z,32.07
2022-10-18T17:34:59.195Z,32.07
2022-10-18T17:37:29.849Z,32.05
2022-10-18T17:39:59.960Z,32.04
2022-10-18T17:42:31.820Z,32.03
2022-10-18T17:45:02.295Z,32.02
2022-10-18T17:47:32.869Z,32.02
2022-10-18T17:50:03.302Z,31.99
2022-10-18T17:52:33.631Z,31.98
2022-10-18T17:55:04.398Z,31.97
2022-10-18T17:57:36.547Z,31.95
2022-10-18T18:00:16.038Z,31.95
2022-10-18T18:02:47.226Z,31.93
2022-10-18T18:05:17.743Z,31.92
2022-10-18T18:07:48.147Z,31.93
2022-10-18T18:10:18.923Z,31.91
2022-10-18T18:12:51.373Z,31.90
2022-10-18T18:15:21.449Z,31.89
2022-10-18T18:17:58.619Z,31.89
2022-10-18T18:20:28.618Z,31.88
2022-10-18T18:22:58.944Z,31.88
2022-10-18T18:25:29.380Z,31.87
2022-10-18T18:28:05.111Z,31.87
2022-10-18T18:30:54.429Z,31.86
2022-10-18T18:33:24.549Z,31.85
2022-10-18T18:35:59.187Z,31.86
2022-10-18T18:38:29.899Z,31.84
2022-10-18T18:41:09.120Z,31.84
2022-10-18T18:43:43.554Z,31.85
2022-10-18T18:46:14.973Z,31.83
2022-10-18T18:48:45.592Z,31.82
2022-10-18T18:51:18.096Z,31.81
2022-10-18T18:53:49.716Z,31.81
2022-10-18T18:56:23.174Z,31.79
2022-10-18T18:58:57.183Z,31.78
2022-10-18T19:01:30.222Z,31.77
2022-10-18T19:04:02.029Z,31.76
2022-10-18T19:06:37.044Z,31.77
2022-10-18T19:09:13.617Z,31.77
2022-10-18T19:11:43.803Z,31.75
2022-10-18T19:14:16.727Z,31.76
2022-10-18T19:16:51.115Z,31.74
2022-10-18T19:19:24.631Z,31.74
2022-10-18T19:21:57.321Z,31.74
2022-10-18T19:24:30.548Z,31.73
2022-10-18T19:27:03.368Z,31.73
2022-10-18T19:29:38.888Z,31.72
2022-10-18T19:32:13.693Z,31.72
2022-10-18T19:34:43.965Z,31.70
2022-10-18T19:37:15.775Z,31.71
2022-10-18T19:39:46.154Z,31.69
2022-10-18T19:42:20.499Z,31.69
2022-10-18T19:44:56.532Z,31.68
2022-10-18T19:47:27.003Z,31.67
2022-10-18T19:49:57.239Z,31.67
2022-10-18T19:52:28.872Z,31.67
2022-10-18T19:54:58.736Z,31.65
2022-10-18T19:57:29.333Z,31.64
2022-10-18T20:00:02.640Z,31.64
2022-10-18T20:02:35.312Z,31.63
2022-10-18T20:05:05.862Z,31.62
2022-10-18T20:07:36.863Z,31.61
2022-10-18T20:10:07.994Z,31.59
2022-10-18T20:12:38.635Z,31.59
2022-10-18T20:15:13.527Z,31.59
2022-10-18T20:17:43.710Z,31.57
2022-10-18T20:20:14.662Z,31.55
2022-10-18T20:22:44.469Z,31.54
2022-10-18T20:25:14.842Z,31.54
2022-10-18T20:27:45.448Z,31.53
2022-10-18T20:30:17.071Z,31.52
2022-10-18T20:32:47.056Z,31.51
2022-10-18T20:35:17.677Z,31.48
2022-10-18T20:37:48.350Z,31.48
2022-10-18T20:40:19.459Z,31.48
2022-10-18T20:42:49.934Z,31.48
2022-10-18T20:45:22.284Z,31.47
2022-10-18T20:47:52.488Z,31.46
2022-10-18T20:50:22.710Z,31.45
2022-10-18T20:52:52.894Z,31.44
2022-10-18T20:55:22.455Z,31.44
2022-10-18T20:57:52.891Z,31.42
2022-10-18T21:00:25.611Z,31.40
2022-10-18T21:02:56.080Z,31.38
2022-10-18T21:05:27.532Z,31.34
2022-10-18T21:07:57.942Z,31.34
2022-10-18T21:10:28.699Z,31.32
2022-10-18T21:12:59.334Z,31.28
2022-10-18T21:15:33.360Z,31.25
2022-10-18T21:18:03.696Z,31.20
2022-10-18T21:20:34.119Z,31.18
2022-10-18T21:23:04.759Z,31.16
2022-10-18T21:25:35.124Z,31.11
2022-10-18T21:28:05.358Z,31.09
2022-10-18T21:30:37.918Z,31.06
2022-10-18T21:33:09.457Z,31.04
2022-10-18T21:35:40.806Z,31.02
2022-10-18T21:38:11.466Z,31.01
2022-10-18T21:40:44.912Z,30.99
2022-10-18T21:43:14.600Z,30.99
2022-10-18T21:45:46.563Z,30.97
2022-10-18T21:48:16.822Z,30.96
2022-10-18T21:50:47.212Z,30.95
2022-10-18T21:53:17.118Z,30.94
2022-10-18T21:55:47.969Z,30.92
2022-10-18T21:58:18.015Z,30.92
2022-10-18T22:00:49.985Z,30.91
2022-10-18T22:03:23.624Z,30.89
2022-10-18T22:06:01.807Z,30.89
2022-10-18T22:08:33.217Z,30.87
2022-10-18T22:11:04.060Z,30.86
2022-10-18T22:13:34.327Z,30.84
2022-10-18T22:16:09.694Z,30.84
2022-10-18T22:18:40.232Z,30.83
2022-10-18T22:21:13.664Z,30.83
2022-10-18T22:23:46.791Z,30.81
2022-10-18T22:26:20.796Z,30.82
2022-10-18T22:28:55.888Z,30.82
2022-10-18T22:31:30.868Z,30.81
2022-10-18T22:34:03.645Z,30.82
2022-10-18T22:36:34.951Z,30.80
2022-10-18T22:39:06.801Z,30.80
2022-10-18T22:41:37.963Z,30.81
2022-10-18T22:44:08.644Z,30.80
2022-10-18T22:46:41.241Z,30.79
2022-10-18T22:49:11.031Z,30.80
2022-10-18T22:51:41.369Z,30.79
2022-10-18T22:54:11.720Z,30.79
2022-10-18T22:56:42.232Z,30.78
2022-10-18T22:59:12.750Z,30.77
2022-10-18T23:01:44.597Z,30.76
2022-10-18T23:04:14.332Z,30.74
2022-10-18T23:06:44.852Z,30.75
2022-10-18T23:09:15.429Z,30.73
2022-10-18T23:11:47.425Z,30.73
2022-10-18T23:14:17.877Z,30.72
2022-10-18T23:16:50.323Z,30.72
2022-10-18T23:19:20.822Z,30.71
2022-10-18T23:21:50.651Z,30.69
2022-10-18T23:24:20.934Z,30.69
2022-10-18T23:26:51.324Z,30.68
2022-10-18T23:29:21.803Z,30.67
2022-10-18T23:31:54.145Z,30.67
2022-10-18T23:34:24.192Z,30.66
2022-10-18T23:36:54.061Z,30.65
2022-10-18T23:39:23.972Z,30.64
2022-10-18T23:41:54.376Z,30.63
2022-10-18T23:44:24.762Z,30.63
2022-10-18T23:46:56.481Z,30.62
2022-10-18T23:49:26.739Z,30.60
2022-10-18T23:51:57.242Z,30.60
2022-10-18T23:54:27.714Z,30.58
2022-10-18T23:56:58.424Z,30.58
2022-10-18T23:59:28.724Z,30.57
